Time;durP1;ratioP1;P1;durP2;ratioP2;P2;SDS_P1;SDS_P2;PMS_P1;PMS_P2;Temp;Humidity;BMP_temperature;BMP_pressure;BME280_temperature;BME280_humidity;BME280_pressure;Samples;Min_cycle;Max_cycle;Signal;HPM_P1;HPM_P2
2021/07/07 00:00:58;;;;;;;4.05;2.42;;;;;;;15.08;90.22;100739.75;4940567;28;20505;-81
2021/07/07 00:03:23;;;;;;;5.28;2.67;;;;;;;15.06;89.50;100749.91;4956488;28;20058;-81
2021/07/07 00:05:49;;;;;;;5.45;2.40;;;;;;;15.03;90.23;100752.19;4951390;28;20257;-79
2021/07/07 00:08:14;;;;;;;4.80;2.60;;;;;;;15.01;90.38;100760.47;4940914;28;20069;-79
2021/07/07 00:10:39;;;;;;;5.03;2.47;;;;;;;15.02;89.77;100751.34;4937972;28;20502;-79
2021/07/07 00:13:06;;;;;;;5.60;3.20;;;;;;;15.00;90.00;100761.50;4959475;28;20046;-79
2021/07/07 00:15:33;;;;;;;7.95;3.20;;;;;;;14.99;90.32;100761.69;4956858;28;20471;-78
2021/07/07 00:18:05;;;;;;;6.20;2.72;;;;;;;14.97;90.46;100764.59;4928067;28;20055;-80
2021/07/07 00:20:36;;;;;;;6.82;2.70;;;;;;;14.99;89.89;100769.78;4937759;28;20464;-80
2021/07/07 00:23:02;;;;;;;7.20;2.95;;;;;;;14.93;90.28;100766.00;4958521;28;20045;-81
2021/07/07 00:25:28;;;;;;;3.65;2.95;;;;;;;14.91;90.46;100773.47;4958213;28;20607;-78
2021/07/07 00:27:53;;;;;;;7.38;3.20;;;;;;;14.85;90.40;100774.25;4951618;28;20043;-78
2021/07/07 00:30:19;;;;;;;5.40;3.00;;;;;;;14.81;90.60;100772.94;4941376;29;20050;-80
2021/07/07 00:32:45;;;;;;;5.97;3.10;;;;;;;14.78;90.91;100770.63;4940641;28;20495;-80
2021/07/07 00:35:11;;;;;;;5.63;3.78;;;;;;;14.74;91.00;100766.66;4938840;28;20046;-78
2021/07/07 00:37:36;;;;;;;5.05;2.90;;;;;;;14.72;91.05;100774.09;4935156;28;20055;-78
2021/07/07 00:40:03;;;;;;;6.78;3.30;;;;;;;14.64;91.83;100772.34;4921873;29;20043;-79
2021/07/07 00:42:29;;;;;;;7.07;2.78;;;;;;;14.63;92.19;100768.81;4935210;28;20486;-80
2021/07/07 00:44:54;;;;;;;7.07;3.20;;;;;;;14.62;92.24;100766.31;4917403;29;20063;-78
2021/07/07 00:47:19;;;;;;;6.82;3.75;;;;;;;14.59;92.28;100770.25;4920147;29;20791;-79
2021/07/07 00:49:45;;;;;;;6.65;3.15;;;;;;;14.59;92.00;100767.53;4919378;29;20050;-79
2021/07/07 00:52:10;;;;;;;8.63;3.33;;;;;;;14.54;92.12;100775.38;4938635;29;20158;-79
2021/07/07 00:54:36;;;;;;;5.85;3.35;;;;;;;14.47;92.67;100769.00;4941050;28;20109;-80
2021/07/07 00:57:02;;;;;;;6.82;3.28;;;;;;;14.47;92.79;100777.13;4961459;28;20070;-80
2021/07/07 00:59:29;;;;;;;6.95;3.58;;;;;;;14.43;92.60;100768.56;4940703;28;20042;-80
2021/07/07 01:01:55;;;;;;;5.55;3.35;;;;;;;14.41;93.55;100769.78;4942211;28;20121;-80
2021/07/07 01:04:21;;;;;;;6.20;4.03;;;;;;;14.39;92.87;100767.28;4956658;28;20143;-81
2021/07/07 01:06:47;;;;;;;6.88;4.07;;;;;;;14.37;93.49;100755.00;4957627;28;20346;-79
2021/07/07 01:09:12;;;;;;;5.80;4.00;;;;;;;14.35;93.43;100765.13;4959886;28;20050;-82
2021/07/07 01:11:38;;;;;;;7.82;4.07;;;;;;;14.29;93.43;100766.72;4956055;28;20495;-80
2021/07/07 01:14:04;;;;;;;9.98;4.68;;;;;;;14.25;93.80;100760.06;4956855;28;20046;-79
2021/07/07 01:16:30;;;;;;;11.27;5.13;;;;;;;14.17;94.93;100765.56;4956958;28;20097;-78
2021/07/07 01:18:55;;;;;;;8.40;4.80;;;;;;;14.15;94.75;100759.50;4958955;28;20398;-79
2021/07/07 01:21:22;;;;;;;7.22;4.68;;;;;;;14.14;94.92;100763.22;4957258;28;20152;-80
2021/07/07 01:23:48;;;;;;;8.15;4.72;;;;;;;14.11;94.77;100759.03;4954215;28;20042;-79
2021/07/07 01:26:14;;;;;;;7.85;4.82;;;;;;;14.08;95.13;100751.31;4937162;28;20043;-80
2021/07/07 01:28:39;;;;;;;7.63;4.90;;;;;;;14.04;95.17;100755.44;4956617;28;20054;-79
2021/07/07 01:31:05;;;;;;;7.75;5.25;;;;;;;14.01;95.19;100755.78;4958126;28;20054;-80
2021/07/07 01:33:31;;;;;;;7.82;5.40;;;;;;;13.98;95.09;100748.94;4940177;28;20039;-79
2021/07/07 01:35:58;;;;;;;7.43;5.00;;;;;;;13.95;95.51;100751.16;4956110;28;20053;-79
2021/07/07 01:38:23;;;;;;;10.38;5.30;;;;;;;13.92;95.84;100755.06;4938328;28;20422;-79
2021/07/07 01:40:49;;;;;;;8.23;5.78;;;;;;;13.90;96.66;100754.41;4958294;28;20046;-80
2021/07/07 01:43:14;;;;;;;8.40;5.78;;;;;;;13.91;96.64;100756.09;4940684;28;20042;-78
2021/07/07 01:45:40;;;;;;;9.23;5.88;;;;;;;13.91;96.40;100752.56;4957265;28;20042;-78
2021/07/07 01:48:05;;;;;;;9.63;5.43;;;;;;;13.91;95.68;100749.84;4959272;28;20054;-79
2021/07/07 01:50:30;;;;;;;7.80;5.80;;;;;;;13.87;96.52;100757.50;4933029;28;20054;-81
2021/07/07 01:52:56;;;;;;;8.52;6.10;;;;;;;13.88;96.79;100753.75;4933582;28;20122;-79
2021/07/07 01:55:25;;;;;;;11.10;6.10;;;;;;;13.90;95.97;100761.69;4936873;28;20239;-79
2021/07/07 01:57:50;;;;;;;7.32;5.97;;;;;;;13.91;96.49;100749.84;4939409;28;20043;-81
2021/07/07 02:00:35;;;;;;;9.65;5.70;;;;;;;13.91;96.89;100752.56;4957982;28;20051;-80
2021/07/07 02:03:01;;;;;;;6.88;5.25;;;;;;;13.94;96.30;100757.56;4924459;28;20070;-80
2021/07/07 02:05:30;;;;;;;8.05;5.78;;;;;;;13.91;96.28;100756.09;4954268;28;20038;-79
2021/07/07 02:07:57;;;;;;;7.40;5.10;;;;;;;13.93;95.75;100766.72;4934675;28;20373;-79
2021/07/07 02:10:22;;;;;;;8.02;5.05;;;;;;;13.92;96.65;100765.84;4956337;28;20043;-81
2021/07/07 02:12:48;;;;;;;7.05;4.80;;;;;;;13.97;96.27;100760.72;4937338;28;20098;-80
2021/07/07 02:15:20;;;;;;;8.23;5.03;;;;;;;13.98;96.12;100748.94;4949254;28;20118;-80
2021/07/07 02:17:46;;;;;;;6.90;5.13;;;;;;;13.98;95.73;100756.16;4957740;28;20042;-79
2021/07/07 02:20:12;;;;;;;12.48;5.07;;;;;;;14.00;95.67;100760.34;4939151;28;20058;-78
2021/07/07 02:22:39;;;;;;;7.65;5.25;;;;;;;14.05;94.87;100753.56;4941636;28;20039;-81
2021/07/07 02:25:09;;;;;;;6.97;4.80;;;;;;;14.04;94.38;100758.13;4939153;28;20046;-79
2021/07/07 02:27:35;;;;;;;8.90;5.60;;;;;;;13.99;94.85;100760.56;4955522;28;20274;-79
2021/07/07 02:30:01;;;;;;;7.97;5.35;;;;;;;13.97;94.46;100760.72;4938584;28;20051;-79
2021/07/07 02:32:27;;;;;;;7.70;5.63;;;;;;;13.87;94.89;100762.88;4960311;28;20195;-80
2021/07/07 02:34:52;;;;;;;9.15;5.68;;;;;;;13.84;95.54;100771.34;4962048;28;20043;-80
2021/07/07 02:37:18;;;;;;;7.40;5.68;;;;;;;13.82;95.45;100773.41;4957007;28;20527;-79
2021/07/07 02:39:43;;;;;;;7.30;5.47;;;;;;;13.80;95.33;100769.22;4946328;28;20315;-80
2021/07/07 02:42:09;;;;;;;8.20;5.65;;;;;;;13.77;95.65;100767.72;4918984;28;20125;-78
2021/07/07 02:44:34;;;;;;;9.07;5.55;;;;;;;13.71;96.45;100779.25;4957962;28;20090;-80
2021/07/07 02:46:59;;;;;;;7.13;5.50;;;;;;;13.66;96.58;100773.56;4957915;28;20051;-79
2021/07/07 02:49:25;;;;;;;8.73;5.47;;;;;;;13.62;96.47;100775.81;4937176;28;20038;-81
2021/07/07 02:51:51;;;;;;;9.23;5.45;;;;;;;13.56;97.05;100771.16;4959946;28;20483;-80
2021/07/07 02:54:16;;;;;;;7.22;5.32;;;;;;;13.56;96.74;100771.16;4943368;28;20470;-79
2021/07/07 02:56:42;;;;;;;8.80;5.25;;;;;;;13.53;97.02;100774.22;4945939;28;20064;-79
2021/07/07 02:59:07;;;;;;;7.57;5.57;;;;;;;13.49;96.96;100779.16;4942913;28;20035;-79
2021/07/07 03:01:32;;;;;;;8.85;5.97;;;;;;;13.46;97.06;100775.94;4923306;28;20074;-78
2021/07/07 03:03:58;;;;;;;10.23;5.95;;;;;;;13.46;97.35;100775.94;4926582;28;20455;-79
2021/07/07 03:06:23;;;;;;;10.23;6.50;;;;;;;13.41;97.31;100775.69;4942668;28;20492;-78
2021/07/07 03:08:49;;;;;;;7.35;5.68;;;;;;;13.41;97.65;100775.69;4943576;28;20412;-79
2021/07/07 03:11:14;;;;;;;7.50;5.82;;;;;;;13.40;97.75;100782.09;4941574;28;20047;-78
2021/07/07 03:13:39;;;;;;;10.00;6.32;;;;;;;13.41;98.13;100781.09;4943298;28;20053;-79
2021/07/07 03:16:05;;;;;;;11.50;6.07;;;;;;;13.39;98.29;100786.63;4959807;28;20166;-79
2021/07/07 03:18:30;;;;;;;9.40;6.28;;;;;;;13.39;97.94;100786.63;4956706;28;20078;-79
2021/07/07 03:20:57;;;;;;;9.25;6.30;;;;;;;13.39;98.18;100788.50;4961638;28;20042;-79
2021/07/07 03:23:24;;;;;;;7.53;6.00;;;;;;;13.38;98.56;100784.13;4957172;28;20046;-79
2021/07/07 03:25:51;;;;;;;8.93;6.32;;;;;;;13.38;99.06;100784.13;4960474;28;20045;-80
2021/07/07 03:28:18;;;;;;;8.85;6.35;;;;;;;13.39;98.74;100788.50;4960508;28;20055;-79
2021/07/07 03:30:43;;;;;;;9.18;6.25;;;;;;;13.42;99.24;100785.44;4941000;28;20456;-79
2021/07/07 03:33:09;;;;;;;11.07;6.60;;;;;;;13.46;98.88;100789.44;4960330;28;20094;-80
2021/07/07 03:35:34;;;;;;;11.43;6.88;;;;;;;13.47;98.62;100793.81;4943268;28;20419;-79
2021/07/07 03:38:00;;;;;;;8.48;6.28;;;;;;;13.50;98.53;100796.16;4940468;28;20507;-78
2021/07/07 03:40:28;;;;;;;8.50;6.38;;;;;;;13.50;98.23;100794.28;4943918;28;20065;-80
2021/07/07 03:42:53;;;;;;;12.73;6.22;;;;;;;13.52;98.65;100800.34;4941803;28;20054;-80
2021/07/07 03:45:20;;;;;;;8.88;6.40;;;;;;;13.56;97.99;100798.13;4939707;28;20046;-80
2021/07/07 03:47:46;;;;;;;7.68;5.80;;;;;;;13.57;97.82;100801.63;4943734;28;20122;-79
2021/07/07 03:50:13;;;;;;;8.38;6.30;;;;;;;13.59;98.56;100803.13;4941640;28;20500;-78
2021/07/07 03:52:38;;;;;;;10.77;6.82;;;;;;;13.64;98.59;100811.50;4959161;28;20051;-79
2021/07/07 03:55:09;;;;;;;9.40;6.40;;;;;;;13.66;98.16;100817.53;4956735;28;20381;-79
2021/07/07 03:57:34;;;;;;;9.73;6.63;;;;;;;13.70;98.51;100818.03;4926801;28;20129;-78
2021/07/07 03:59:59;;;;;;;9.63;6.80;;;;;;;13.73;97.74;100817.66;4957641;28;20097;-79
2021/07/07 04:02:25;;;;;;;10.02;6.70;;;;;;;13.75;97.77;100821.00;4944706;28;20488;-79
2021/07/07 04:04:51;;;;;;;10.10;6.43;;;;;;;13.77;97.80;100827.88;4961712;28;20043;-81
2021/07/07 04:07:16;;;;;;;10.20;6.10;;;;;;;13.80;97.74;100821.28;4946035;28;20166;-81
2021/07/07 04:09:43;;;;;;;12.35;6.63;;;;;;;13.86;97.60;100830.50;4959280;28;20625;-78
2021/07/07 04:12:09;;;;;;;9.73;5.95;;;;;;;13.92;97.52;100838.69;4938039;28;20531;-80
2021/07/07 04:14:34;;;;;;;9.82;6.30;;;;;;;13.96;97.14;100836.47;4958009;28;20042;-80
2021/07/07 04:17:00;;;;;;;10.52;6.38;;;;;;;14.00;97.42;100845.84;4961270;28;20043;-79
2021/07/07 04:19:27;;;;;;;9.18;6.35;;;;;;;14.05;97.14;100848.00;4960727;28;20070;-78
2021/07/07 04:21:53;;;;;;;9.93;5.68;;;;;;;14.08;96.41;100845.78;4962267;28;20042;-80
2021/07/07 04:24:20;;;;;;;10.38;5.75;;;;;;;14.13;96.03;100837.97;4961077;28;20191;-79
2021/07/07 04:26:45;;;;;;;8.57;5.30;;;;;;;14.15;96.00;100846.69;4943832;28;20439;-80
2021/07/07 04:29:12;;;;;;;7.78;4.90;;;;;;;14.18;95.92;100846.34;4943212;28;20057;-80
2021/07/07 04:31:38;;;;;;;8.05;5.38;;;;;;;14.19;95.51;100853.41;4943837;28;20059;-80
2021/07/07 04:34:03;;;;;;;9.00;5.07;;;;;;;14.23;95.24;100848.47;4959464;28;20065;-78
2021/07/07 04:36:29;;;;;;;8.23;5.40;;;;;;;14.23;95.79;100843.06;4958386;28;20126;-79
2021/07/07 04:38:55;;;;;;;9.15;5.38;;;;;;;14.27;94.97;100838.13;4960798;28;20125;-81
2021/07/07 04:41:21;;;;;;;8.40;5.32;;;;;;;14.30;94.88;100848.53;4941215;28;20137;-82
2021/07/07 04:43:47;;;;;;;10.95;5.13;;;;;;;14.33;94.70;100848.19;4960546;28;20054;-81
2021/07/07 04:46:12;;;;;;;9.85;5.13;;;;;;;14.34;95.24;100847.16;4944095;28;20035;-80
2021/07/07 04:48:37;;;;;;;9.55;5.30;;;;;;;14.37;95.26;100839.50;4940663;28;20589;-79
2021/07/07 04:51:03;;;;;;;10.20;5.65;;;;;;;14.42;94.69;100838.97;4940441;28;20051;-81
2021/07/07 04:53:28;;;;;;;10.18;5.38;;;;;;;14.48;94.60;100840.06;4959776;28;20043;-80
2021/07/07 04:55:53;;;;;;;7.47;5.03;;;;;;;14.51;94.67;100837.00;4936880;28;20101;-79
2021/07/07 04:58:19;;;;;;;8.60;4.97;;;;;;;14.59;93.65;100836.94;4927001;28;20179;-79
2021/07/07 05:00:45;;;;;;;9.65;5.97;;;;;;;14.62;93.44;100840.06;4941512;28;20046;-79
2021/07/07 05:03:10;;;;;;;9.30;5.07;;;;;;;14.70;93.13;100843.69;4936218;28;20074;-80
2021/07/07 05:05:35;;;;;;;10.45;5.20;;;;;;;14.71;93.95;100839.97;4959539;28;20096;-80
2021/07/07 05:08:01;;;;;;;9.30;4.72;;;;;;;14.75;93.76;100846.66;4938120;28;20074;-79
2021/07/07 05:10:29;;;;;;;11.10;5.53;;;;;;;14.80;93.17;100838.81;4924090;28;20508;-79
2021/07/07 05:12:56;;;;;;;8.93;5.10;;;;;;;14.82;92.48;100843.00;4905110;29;20432;-79
2021/07/07 05:15:22;;;;;;;8.57;5.00;;;;;;;14.89;92.49;100848.47;4924298;29;20619;-79
2021/07/07 05:17:49;;;;;;;10.55;5.15;;;;;;;14.93;92.67;100847.06;4947163;28;20105;-79
2021/07/07 05:20:15;;;;;;;8.20;5.30;;;;;;;14.95;92.36;100853.09;4960275;28;20046;-79
2021/07/07 05:22:43;;;;;;;12.50;5.15;;;;;;;15.05;92.29;100852.81;4954930;28;20043;-80
2021/07/07 05:25:09;;;;;;;10.70;5.40;;;;;;;15.14;92.11;100853.53;4919668;28;20055;-80
2021/07/07 05:27:35;;;;;;;11.85;4.88;;;;;;;15.22;92.06;100847.97;4940363;28;20463;-80
2021/07/07 05:30:00;;;;;;;10.52;5.30;;;;;;;15.33;92.21;100847.44;4959693;28;20046;-79
2021/07/07 05:32:26;;;;;;;13.35;5.45;;;;;;;15.46;91.82;100844.88;4958575;28;20057;-80
2021/07/07 05:34:53;;;;;;;11.80;4.82;;;;;;;15.51;90.57;100841.59;4939766;28;20415;-80
2021/07/07 05:37:22;;;;;;;11.50;5.43;;;;;;;15.61;90.52;100852.91;4936390;28;20113;-78
2021/07/07 05:39:49;;;;;;;11.75;5.13;;;;;;;15.74;90.90;100846.81;4958412;28;20123;-81
2021/07/07 05:42:17;;;;;;;9.35;4.70;;;;;;;15.87;90.47;100846.88;4955187;28;20126;-78
2021/07/07 05:44:43;;;;;;;9.63;4.90;;;;;;;16.02;89.00;100850.34;4959392;28;20055;-79
2021/07/07 05:47:08;;;;;;;7.15;4.35;;;;;;;16.12;88.95;100841.84;4906865;28;20061;-79
2021/07/07 05:49:33;;;;;;;12.85;4.70;;;;;;;16.19;88.22;100845.41;4959905;28;20051;-79
2021/07/07 05:51:59;;;;;;;9.65;4.32;;;;;;;16.28;87.24;100848.78;4957855;28;20389;-81
2021/07/07 05:54:24;;;;;;;9.07;4.25;;;;;;;16.33;87.07;100850.91;4957964;28;20369;-80
2021/07/07 05:56:50;;;;;;;9.23;4.35;;;;;;;16.38;87.56;100857.38;4960817;28;20633;-80
2021/07/07 05:59:16;;;;;;;8.43;4.18;;;;;;;16.47;86.53;100849.94;4924814;28;20067;-80
2021/07/07 06:01:41;;;;;;;8.85;4.18;;;;;;;16.55;86.15;100854.34;4944310;28;20050;-79
2021/07/07 06:04:07;;;;;;;10.70;4.35;;;;;;;16.61;86.34;100861.66;4966485;28;20054;-81
2021/07/07 06:06:32;;;;;;;6.93;4.10;;;;;;;16.65;85.66;100871.03;4938615;28;20051;-80
2021/07/07 06:08:58;;;;;;;8.50;3.83;;;;;;;16.68;84.59;100866.06;4959697;28;20146;-81
2021/07/07 06:11:23;;;;;;;9.05;4.28;;;;;;;16.75;85.10;100871.50;4935679;28;20505;-80
2021/07/07 06:13:49;;;;;;;12.05;4.45;;;;;;;16.79;84.80;100867.38;4938583;28;20043;-82
2021/07/07 06:16:14;;;;;;;9.70;4.40;;;;;;;16.81;84.09;100870.72;4940178;28;20039;-79
2021/07/07 06:18:40;;;;;;;9.40;4.15;;;;;;;16.86;84.50;100870.09;4947798;28;20093;-80
2021/07/07 06:21:05;;;;;;;6.95;3.67;;;;;;;16.94;83.61;100866.38;4956728;28;20058;-81
2021/07/07 06:23:30;;;;;;;11.55;3.42;;;;;;;17.02;83.75;100877.88;4950867;28;20134;-79
2021/07/07 06:25:56;;;;;;;9.93;4.05;;;;;;;17.14;83.60;100875.41;4962962;28;20046;-83
2021/07/07 06:28:22;;;;;;;11.48;3.90;;;;;;;17.21;83.25;100878.97;4941880;28;20051;-81
2021/07/07 06:30:47;;;;;;;11.25;3.83;;;;;;;17.22;82.88;100877.91;4958682;28;20696;-82
2021/07/07 06:33:13;;;;;;;6.85;3.08;;;;;;;17.27;82.87;100880.03;4952602;28;20067;-82
2021/07/07 06:35:38;;;;;;;8.75;3.85;;;;;;;17.27;82.62;100882.75;4946061;28;20055;-82
2021/07/07 06:38:04;;;;;;;8.10;3.63;;;;;;;17.27;82.07;100886.28;4950169;28;20062;-83
2021/07/07 06:40:31;;;;;;;9.98;4.18;;;;;;;17.33;82.27;100892.75;4972716;28;20039;-83
2021/07/07 06:42:56;;;;;;;12.05;3.92;;;;;;;17.38;82.02;100882.13;4957515;28;20138;-81
2021/07/07 06:45:23;;;;;;;8.70;3.75;;;;;;;17.40;81.61;100895.47;4957338;28;20035;-79
2021/07/07 06:47:49;;;;;;;11.68;4.00;;;;;;;17.44;81.56;100885.91;4950956;28;20054;-80
2021/07/07 06:50:15;;;;;;;9.23;3.92;;;;;;;17.47;81.56;100897.16;4955453;28;20476;-82
2021/07/07 06:52:42;;;;;;;10.77;3.55;;;;;;;17.51;81.34;100892.16;4968144;28;20309;-83
2021/07/07 06:55:08;;;;;;;9.55;4.18;;;;;;;17.52;81.63;100894.66;4936446;28;20395;-81
2021/07/07 06:57:34;;;;;;;8.52;4.05;;;;;;;17.51;82.09;100897.56;4950360;28;20575;-81
2021/07/07 07:00:08;;;;;;;10.23;3.70;;;;;;;17.56;81.66;100906.75;4951849;28;20155;-82
2021/07/07 07:02:33;;;;;;;8.65;3.38;;;;;;;17.58;82.21;100904.69;4931637;28;20727;-80
2021/07/07 07:04:59;;;;;;;10.07;3.65;;;;;;;17.60;81.74;100896.31;4921238;29;20058;-83
2021/07/07 07:07:28;;;;;;;10.77;4.15;;;;;;;17.64;81.70;100913.88;4948683;28;20107;-82
2021/07/07 07:09:54;;;;;;;14.20;4.40;;;;;;;17.67;81.84;100927.03;4951576;28;20051;-81
2021/07/07 07:12:20;;;;;;;11.32;3.67;;;;;;;17.69;81.37;100913.22;4932763;29;20431;-82
2021/07/07 07:14:49;;;;;;;12.32;4.07;;;;;;;17.69;81.67;100911.34;4929746;28;20506;-79
2021/07/07 07:17:15;;;;;;;8.85;3.97;;;;;;;17.71;81.89;100913.88;4928425;28;20050;-82
2021/07/07 07:19:40;;;;;;;8.65;3.60;;;;;;;17.83;81.98;100916.81;4932848;28;20042;-80
2021/07/07 07:22:06;;;;;;;9.52;3.67;;;;;;;17.88;81.92;100914.31;4930656;29;20175;-83
2021/07/07 07:24:32;;;;;;;9.60;3.85;;;;;;;17.97;81.76;100921.22;4947293;28;20277;-80
2021/07/07 07:26:57;;;;;;;12.80;4.10;;;;;;;17.99;80.93;100921.84;4929446;29;20499;-82
2021/07/07 07:29:24;;;;;;;7.22;3.30;;;;;;;17.97;80.64;100924.75;4947403;28;20047;-80
2021/07/07 07:31:49;;;;;;;8.90;3.35;;;;;;;18.01;80.90;100930.59;4967572;28;20561;-82
2021/07/07 07:34:15;;;;;;;9.98;3.60;;;;;;;18.12;81.45;100932.66;4968384;28;20122;-82
2021/07/07 07:36:41;;;;;;;11.00;4.20;;;;;;;18.21;80.40;100930.56;4950749;28;20099;-82
2021/07/07 07:39:15;;;;;;;11.52;3.58;;;;;;;18.29;80.60;100935.78;4951493;28;20507;-83
2021/07/07 07:41:40;;;;;;;10.65;3.65;;;;;;;18.41;80.13;100941.41;4949351;28;20121;-82
2021/07/07 07:44:09;;;;;;;8.45;3.63;;;;;;;18.44;79.17;100935.53;4947848;28;20047;-82
2021/07/07 07:46:34;;;;;;;;;;;;;;;18.47;79.35;100937.84;4952051;28;20089;-82
2021/07/07 07:49:01;;;;;;;8.85;3.42;;;;;;;18.48;78.94;100936.81;4971749;28;19953;-82
2021/07/07 07:51:30;;;;;;;9.45;3.40;;;;;;;18.55;78.34;100943.03;4967978;28;20038;-79
2021/07/07 07:53:56;;;;;;;9.75;3.25;;;;;;;18.61;78.12;100938.63;4967902;28;20039;-80
2021/07/07 07:56:21;;;;;;;10.80;3.17;;;;;;;18.71;77.83;100945.31;4949137;28;20049;-81
2021/07/07 07:58:47;;;;;;;8.02;3.30;;;;;;;18.74;77.08;100937.81;4965663;28;20141;-81
2021/07/07 08:01:12;;;;;;;10.20;2.95;;;;;;;18.80;76.66;100955.97;4948824;28;20043;-80
2021/07/07 08:03:38;;;;;;;9.07;3.40;;;;;;;18.87;76.51;100954.06;4949081;28;20069;-80
2021/07/07 08:06:03;;;;;;;9.32;2.97;;;;;;;18.94;76.08;100963.03;4949649;28;20039;-81
2021/07/07 08:08:28;;;;;;;9.57;3.30;;;;;;;19.02;75.57;100949.19;4964209;28;20047;-80
2021/07/07 08:10:54;;;;;;;7.40;3.13;;;;;;;19.05;75.28;100953.38;4963794;28;20049;-79
2021/07/07 08:13:19;;;;;;;9.32;2.85;;;;;;;19.07;74.51;100951.25;4950755;28;20736;-81
2021/07/07 08:15:45;;;;;;;9.18;3.00;;;;;;;19.07;74.14;100953.97;4955510;28;20030;-82
2021/07/07 08:18:10;;;;;;;8.88;3.17;;;;;;;19.07;74.27;100952.06;4954526;28;20403;-80
2021/07/07 08:20:35;;;;;;;10.55;3.00;;;;;;;19.21;74.73;100955.56;4970240;28;20042;-80
2021/07/07 08:23:01;;;;;;;10.88;3.53;;;;;;;19.29;72.10;100943.63;4971944;28;20307;-81
2021/07/07 08:25:26;;;;;;;9.38;3.00;;;;;;;19.37;72.24;100946.09;4952327;28;20476;-81
2021/07/07 08:27:54;;;;;;;10.77;2.72;;;;;;;19.49;72.33;100954.38;4966873;28;20053;-82
2021/07/07 08:30:19;;;;;;;11.70;3.53;;;;;;;19.64;72.75;100945.91;4969625;28;20454;-83
2021/07/07 08:32:45;;;;;;;8.63;3.13;;;;;;;19.82;72.79;100944.13;4947708;28;20038;-79
2021/07/07 08:35:11;;;;;;;10.02;2.78;;;;;;;20.03;72.48;100945.63;4952349;28;20407;-78
2021/07/07 08:37:39;;;;;;;7.10;2.67;;;;;;;20.07;70.95;100954.16;4968722;28;20054;-79
2021/07/07 08:40:05;;;;;;;8.07;2.40;;;;;;;20.14;69.53;100956.81;4968027;28;20042;-79
2021/07/07 08:42:34;;;;;;;5.68;2.33;;;;;;;20.12;69.86;100969.88;4966197;28;20527;-80
2021/07/07 08:45:07;;;;;;;8.52;2.20;;;;;;;20.25;70.07;100961.53;4966196;28;20062;-83
2021/07/07 08:47:33;;;;;;;8.57;2.45;;;;;;;20.41;69.91;100960.16;4967181;28;20255;-82
2021/07/07 08:49:58;;;;;;;7.95;2.33;;;;;;;20.43;68.99;100966.22;4957720;28;20511;-80
2021/07/07 08:52:25;;;;;;;4.65;2.17;;;;;;;20.48;67.88;100969.06;4949616;28;20047;-81
2021/07/07 08:54:50;;;;;;;7.07;2.08;;;;;;;20.44;65.99;100971.44;4970545;28;20044;-80
2021/07/07 08:57:20;;;;;;;5.35;2.25;;;;;;;20.50;66.00;100965.06;4950067;28;20037;-78
2021/07/07 08:59:45;;;;;;;8.93;2.05;;;;;;;20.50;67.07;100967.78;4967243;28;20274;-82
2021/07/07 09:02:12;;;;;;;7.55;2.10;;;;;;;20.56;66.43;100962.53;4954858;28;20042;-79
2021/07/07 09:04:40;;;;;;;6.28;1.95;;;;;;;20.57;63.83;100964.19;4950269;28;20399;-80
2021/07/07 09:07:09;;;;;;;5.40;2.10;;;;;;;20.65;65.16;100972.06;4952244;28;20072;-83
2021/07/07 09:09:43;;;;;;;7.15;2.30;;;;;;;20.76;64.54;100973.22;4938175;28;20416;-81
2021/07/07 09:12:29;;;;;;;5.50;2.08;;;;;;;20.76;64.48;100976.78;4973536;28;20034;-81
2021/07/07 09:15:02;;;;;;;5.93;2.22;;;;;;;20.86;65.55;100971.66;4949986;28;20039;-79
2021/07/07 09:17:37;;;;;;;5.72;2.15;;;;;;;20.93;64.00;100974.28;4966241;28;20399;-82
2021/07/07 09:20:17;;;;;;;9.07;2.20;;;;;;;21.02;63.99;100975.63;4949604;28;20483;-80
2021/07/07 09:22:42;;;;;;;5.88;2.25;;;;;;;21.18;65.42;100963.28;4961199;28;20039;-82
2021/07/07 09:25:08;;;;;;;5.88;2.10;;;;;;;21.25;64.48;100980.38;4949223;28;20783;-79
2021/07/07 09:27:36;;;;;;;6.45;2.20;;;;;;;21.30;62.72;100969.59;4961926;28;20039;-81
2021/07/07 09:30:13;;;;;;;5.95;1.88;;;;;;;21.34;63.04;100978.16;4937750;28;20047;-79
2021/07/07 09:32:47;;;;;;;8.90;2.40;;;;;;;21.27;62.41;100972.78;4968464;28;20361;-82
2021/07/07 09:35:15;;;;;;;3.85;1.77;;;;;;;21.31;61.30;100968.53;4970687;28;20038;-82
2021/07/07 09:37:49;;;;;;;5.53;1.73;;;;;;;21.48;63.62;100970.66;4948604;28;20510;-82
2021/07/07 09:40:15;;;;;;;6.97;2.15;;;;;;;21.54;61.63;100981.47;4965323;28;20109;-82
2021/07/07 09:42:45;;;;;;;7.18;2.15;;;;;;;21.56;60.13;100979.34;4969105;28;20062;-80
2021/07/07 09:45:15;;;;;;;6.15;1.70;;;;;;;21.56;59.91;100978.53;4966085;28;20043;-83
2021/07/07 09:47:41;;;;;;;6.07;2.10;;;;;;;21.65;60.18;100981.75;4965270;28;20423;-80
2021/07/07 09:50:08;;;;;;;7.45;1.75;;;;;;;21.65;59.30;100985.31;4967675;28;20117;-80
2021/07/07 09:52:34;;;;;;;4.65;2.10;;;;;;;21.72;60.58;100980.59;4945909;28;20050;-79
2021/07/07 09:55:06;;;;;;;4.10;1.77;;;;;;;21.64;58.94;101000.03;4967094;28;20783;-83
2021/07/07 09:57:31;;;;;;;5.38;1.92;;;;;;;21.67;58.52;100993.28;4966053;28;20085;-80
2021/07/07 09:59:58;;;;;;;7.03;1.70;;;;;;;21.79;58.71;100997.69;4956345;28;20039;-82
2021/07/07 10:02:24;;;;;;;7.80;2.13;;;;;;;21.77;58.01;100997.09;4975062;28;20093;-82
2021/07/07 10:04:52;;;;;;;8.02;1.85;;;;;;;21.89;58.48;101001.75;4977012;28;20081;-81
2021/07/07 10:07:17;;;;;;;5.43;2.08;;;;;;;21.94;60.07;100999.16;4968611;28;20090;-80
2021/07/07 10:09:47;;;;;;;6.18;2.22;;;;;;;21.95;58.68;100993.47;4950995;28;20050;-82
2021/07/07 10:12:12;;;;;;;8.93;2.58;;;;;;;21.85;58.68;100977.63;4952032;28;20471;-82
2021/07/07 10:14:38;;;;;;;4.93;1.83;;;;;;;21.92;58.07;101004.00;4960221;28;20134;-80
2021/07/07 10:17:04;;;;;;;5.00;1.92;;;;;;;21.92;56.89;100998.53;4951555;28;20603;-84
2021/07/07 10:19:30;;;;;;;5.80;2.00;;;;;;;21.83;58.40;101009.81;4945810;28;20050;-82
2021/07/07 10:21:56;;;;;;;7.55;2.67;;;;;;;21.83;58.57;101007.06;4952195;28;20054;-81
2021/07/07 10:24:29;;;;;;;6.40;2.13;;;;;;;21.90;58.44;101007.00;4952490;28;20039;-82
2021/07/07 10:27:03;;;;;;;7.15;2.17;;;;;;;21.93;57.02;101008.44;4968409;28;20149;-82
2021/07/07 10:29:29;;;;;;;8.57;1.70;;;;;;;21.85;56.92;101018.63;4973228;28;20050;-82
2021/07/07 10:32:00;;;;;;;5.72;2.00;;;;;;;21.86;57.71;101008.50;4974472;28;20038;-83
2021/07/07 10:34:28;;;;;;;7.13;2.38;;;;;;;21.81;57.39;101011.97;4959582;28;20479;-83
2021/07/07 10:36:55;;;;;;;9.40;2.30;;;;;;;21.83;56.61;101018.00;4969335;28;20142;-83
2021/07/07 10:39:21;;;;;;;5.85;2.38;;;;;;;21.89;57.34;101012.69;4937198;28;20562;-80
2021/07/07 10:41:53;;;;;;;8.60;1.85;;;;;;;22.09;56.99;101018.66;4946389;28;20055;-84
2021/07/07 10:44:25;;;;;;;5.22;1.60;;;;;;;22.15;55.20;101005.94;4953057;28;20395;-78
2021/07/07 10:47:00;;;;;;;8.02;2.22;;;;;;;22.04;55.55;101015.81;4977700;28;20129;-83
2021/07/07 10:49:28;;;;;;;6.57;1.85;;;;;;;22.07;54.21;101016.19;4954842;28;20086;-79
2021/07/07 10:51:56;;;;;;;5.40;1.70;;;;;;;22.14;55.13;101016.06;4948158;28;20435;-83
2021/07/07 10:54:27;;;;;;;7.03;1.73;;;;;;;22.18;55.39;101009.09;4943134;28;22101;-79
2021/07/07 10:56:54;;;;;;;5.38;1.73;;;;;;;22.25;56.39;101028.94;4958119;28;20342;-81
2021/07/07 10:59:40;;;;;;;4.07;1.63;;;;;;;22.34;56.77;101020.41;4960343;28;20042;-82
2021/07/07 11:02:07;;;;;;;7.35;2.42;;;;;;;22.47;53.30;101022.88;4939860;28;20066;-83
2021/07/07 11:04:36;;;;;;;5.07;1.80;;;;;;;22.42;54.32;101028.25;4962877;28;20053;-80
2021/07/07 11:07:24;;;;;;;6.25;1.77;;;;;;;22.29;53.64;101024.66;4963640;28;20046;-80
2021/07/07 11:09:52;;;;;;;6.22;1.95;;;;;;;22.16;53.28;101029.50;4941032;28;20126;-82
2021/07/07 11:12:41;;;;;;;6.25;2.13;;;;;;;22.21;54.83;101038.69;4969013;28;20042;-81
2021/07/07 11:15:07;;;;;;;;;;;;;;;22.22;54.05;101045.81;4918426;28;20117;-83
2021/07/07 11:17:44;;;;;;;4.80;2.50;;;;;;;22.24;54.39;101030.03;4968076;28;19914;-84
2021/07/07 11:20:11;;;;;;;6.63;2.00;;;;;;;22.37;53.61;101030.84;4957266;28;20039;-83
2021/07/07 11:22:40;;;;;;;6.22;2.03;;;;;;;22.32;54.00;101033.47;4958530;28;20055;-81